Time;durP1;ratioP1;P1;durP2;ratioP2;P2;SDS_P1;SDS_P2;PMS_P1;PMS_P2;Temp;Humidity;BMP_temperature;BMP_pressure;BME280_temperature;BME280_humidity;BME280_pressure;Samples;Min_cycle;Max_cycle;Signal;HPM_P1;HPM_P2
2022/08/14 00:01:29;;;;;;;6.90;5.13;;;;;;;24.84;100.00;99890.53;1660406;86;21093;-57
2022/08/14 00:03:57;;;;;;;9.70;5.40;;;;;;;24.82;100.00;99887.37;1660513;85;21074;-56
2022/08/14 00:06:24;;;;;;;6.67;5.00;;;;;;;24.81;100.00;99895.88;1660377;86;21152;-56
2022/08/14 00:08:51;;;;;;;7.07;4.97;;;;;;;24.80;100.00;99897.52;1659410;86;21002;-57
2022/08/14 00:11:18;;;;;;;6.47;4.67;;;;;;;24.79;100.00;99893.27;1660070;86;21061;-56
2022/08/14 00:13:47;;;;;;;6.00;4.83;;;;;;;24.77;100.00;99898.87;1660360;86;21045;-57
2022/08/14 00:16:16;;;;;;;5.90;5.10;;;;;;;24.74;100.00;99902.13;1660449;86;21065;-55
2022/08/14 00:18:44;;;;;;;6.20;5.07;;;;;;;24.75;100.00;99907.70;1660209;86;21524;-63
2022/08/14 00:21:11;;;;;;;6.03;4.57;;;;;;;24.75;100.00;99902.37;1659906;86;21097;-56
2022/08/14 00:23:39;;;;;;;5.93;4.67;;;;;;;24.74;100.00;99902.92;1660433;86;21064;-56
2022/08/14 00:26:06;;;;;;;7.03;4.83;;;;;;;24.73;100.00;99909.30;1660273;86;21049;-57
2022/08/14 00:28:34;;;;;;;11.30;5.50;;;;;;;24.71;100.00;99902.15;1660223;86;20999;-64
2022/08/14 00:31:02;;;;;;;5.57;4.90;;;;;;;24.69;100.00;99904.30;1659858;86;21168;-55
2022/08/14 00:33:29;;;;;;;5.90;4.07;;;;;;;24.67;100.00;99900.34;1659864;86;20998;-56
2022/08/14 00:35:57;;;;;;;7.00;5.23;;;;;;;24.65;100.00;99910.48;1660541;86;21116;-55
2022/08/14 00:38:24;;;;;;;7.23;4.67;;;;;;;24.62;100.00;99904.39;1660463;86;20999;-54
2022/08/14 00:40:51;;;;;;;8.47;5.60;;;;;;;24.59;100.00;99898.31;1660509;86;20895;-59
2022/08/14 00:43:19;;;;;;;5.47;4.70;;;;;;;24.56;100.00;99904.21;1660350;86;21251;-62
2022/08/14 00:45:47;;;;;;;6.97;4.50;;;;;;;24.53;100.00;99908.23;1660047;86;21071;-55
2022/08/14 00:48:17;;;;;;;5.50;4.97;;;;;;;24.51;100.00;99901.07;1660187;86;21864;-55
2022/08/14 00:50:43;;;;;;;8.20;5.00;;;;;;;24.48;100.00;99899.76;1660201;86;21516;-56
2022/08/14 00:53:10;;;;;;;5.57;4.93;;;;;;;24.46;100.00;99897.90;1660001;86;21500;-58
2022/08/14 00:55:40;;;;;;;7.17;5.07;;;;;;;24.42;100.00;99900.88;1659468;86;21511;-57
2022/08/14 01:00:52;;;;;;;6.43;5.30;;;;;;;24.38;100.00;99893.17;1660187;86;21021;-61
2022/08/14 01:03:19;;;;;;;5.77;5.17;;;;;;;24.35;100.00;99897.73;1660420;84;21117;-64
2022/08/14 01:05:49;;;;;;;6.87;4.70;;;;;;;24.32;100.00;99892.17;1692699;84;21031;-55
2022/08/14 01:08:26;;;;;;;6.50;4.90;;;;;;;24.30;100.00;99897.80;1693521;84;22075;-55
2022/08/14 01:10:54;;;;;;;5.93;5.10;;;;;;;24.27;100.00;99895.69;1692853;84;20951;-55
2022/08/14 01:13:26;;;;;;;6.07;5.20;;;;;;;24.24;100.00;99898.91;1693085;84;21007;-63
2022/08/14 01:15:56;;;;;;;6.37;5.10;;;;;;;24.23;100.00;99902.11;1692252;84;21114;-55
2022/08/14 01:21:16;;;;;;;6.73;4.50;;;;;;;24.20;100.00;99892.56;1693285;84;21272;-64
2022/08/14 01:23:45;;;;;;;6.10;4.93;;;;;;;24.16;100.00;99900.86;1693105;84;21082;-54
2022/08/14 01:26:14;;;;;;;6.53;4.80;;;;;;;24.15;100.00;99904.61;1692849;84;21059;-55
2022/08/14 01:28:41;;;;;;;7.47;4.30;;;;;;;24.12;100.00;99899.30;1693296;84;21507;-55
2022/08/14 01:31:12;;;;;;;6.00;4.23;;;;;;;24.09;100.00;99904.39;1693176;84;21516;-63
2022/08/14 01:33:43;;;;;;;6.33;4.72;;;;;;;24.05;100.00;99909.48;1693237;84;21663;-57
2022/08/14 01:36:09;;;;;;;7.00;4.60;;;;;;;24.04;100.00;99903.91;1692461;84;21575;-56
2022/08/14 01:38:41;;;;;;;7.03;5.07;;;;;;;24.01;100.00;99907.91;1693149;84;21016;-55
2022/08/14 01:41:10;;;;;;;7.25;4.95;;;;;;;23.96;100.00;99906.64;1693635;84;28076;-56
2022/08/14 01:43:58;;;;;;;7.37;4.67;;;;;;;23.95;100.00;99904.27;1692518;84;21071;-61
2022/08/14 01:46:24;;;;;;;6.23;4.13;;;;;;;23.96;100.00;99903.98;1693548;84;21227;-55
2022/08/14 01:48:51;;;;;;;6.97;4.37;;;;;;;23.95;100.00;99906.39;1693796;84;21071;-56
2022/08/14 01:51:23;;;;;;;6.63;4.83;;;;;;;23.97;100.00;99905.55;1696809;84;21015;-63
2022/08/14 01:53:53;;;;;;;7.40;5.17;;;;;;;23.98;100.00;99913.83;1693771;84;21325;-56
2022/08/14 01:56:20;;;;;;;5.87;4.43;;;;;;;23.95;100.00;99903.73;1693651;84;21063;-56
2022/08/14 01:58:48;;;;;;;7.07;4.37;;;;;;;23.96;100.00;99915.95;1693919;84;21835;-56
2022/08/14 02:01:16;;;;;;;7.73;4.57;;;;;;;23.97;100.00;99912.75;1693072;84;21020;-64
2022/08/14 02:03:44;;;;;;;9.10;5.03;;;;;;;23.96;100.00;99918.62;1692258;84;21236;-56
2022/08/14 02:06:11;;;;;;;6.50;4.60;;;;;;;23.93;100.00;99917.84;1661172;86;21067;-56
2022/08/14 02:08:39;;;;;;;6.70;4.57;;;;;;;23.92;100.00;99906.94;1661115;86;21078;-56
2022/08/14 02:11:21;;;;;;;6.37;4.47;;;;;;;23.91;100.00;99912.56;1661043;86;21323;-57
2022/08/14 02:13:57;;;;;;;6.67;4.40;;;;;;;23.89;100.00;99907.50;1660718;86;21057;-57
2022/08/14 02:16:28;;;;;;;6.70;4.30;;;;;;;23.87;100.00;99907.54;1661339;86;21452;-56
2022/08/14 02:18:57;;;;;;;7.40;4.63;;;;;;;23.85;100.00;99910.46;1660722;86;21061;-64
2022/08/14 02:21:26;;;;;;;6.80;4.40;;;;;;;23.82;100.00;99917.67;1660649;86;21540;-56
2022/08/14 02:23:53;;;;;;;5.50;4.27;;;;;;;23.79;100.00;99915.59;1661221;86;21788;-57
2022/08/14 02:26:27;;;;;;;6.60;4.63;;;;;;;23.77;100.00;99916.39;1660765;86;20999;-56
2022/08/14 02:29:00;;;;;;;6.17;4.50;;;;;;;23.75;100.00;99913.20;1660296;86;21457;-63
2022/08/14 02:31:34;;;;;;;5.73;4.60;;;;;;;23.73;100.00;99919.35;1660487;86;21484;-57
2022/08/14 02:34:09;;;;;;;7.33;4.80;;;;;;;23.70;100.00;99918.58;1660714;86;21520;-56
2022/08/14 02:36:37;;;;;;;5.93;4.40;;;;;;;23.66;100.00;99929.48;1660262;86;21100;-64
2022/08/14 02:39:09;;;;;;;6.27;4.60;;;;;;;23.63;100.00;99928.70;1660240;86;21005;-56
2022/08/14 02:41:37;;;;;;;6.63;4.40;;;;;;;23.57;100.00;99928.50;1644807;86;21015;-56
2022/08/14 02:44:05;;;;;;;6.57;4.70;;;;;;;23.54;100.00;99931.95;1660936;86;21492;-56
2022/08/14 02:46:32;;;;;;;6.47;4.83;;;;;;;23.51;100.00;99925.86;1661019;86;21087;-62
2022/08/14 02:49:00;;;;;;;6.33;4.27;;;;;;;23.46;100.00;99928.56;1660162;86;21754;-56
2022/08/14 02:51:28;;;;;;;6.07;4.30;;;;;;;23.46;100.00;99929.89;1661074;86;21059;-56
2022/08/14 02:53:57;;;;;;;7.97;4.73;;;;;;;23.45;100.00;99926.98;1661254;86;21053;-57
2022/08/14 02:56:26;;;;;;;6.83;4.67;;;;;;;23.43;100.00;99927.78;1660911;86;21067;-64
2022/08/14 02:58:54;;;;;;;7.00;4.23;;;;;;;23.41;100.00;99925.95;1659834;86;21059;-57
2022/08/14 03:01:21;;;;;;;6.80;4.57;;;;;;;23.40;100.00;99929.66;1660752;86;22220;-56
2022/08/14 03:03:49;;;;;;;6.70;4.63;;;;;;;23.41;100.00;99929.11;1660704;86;21011;-57
2022/08/14 03:06:23;;;;;;;7.10;4.30;;;;;;;23.41;100.00;99923.28;1691567;84;21375;-62
2022/08/14 03:08:47;;;;;;;6.07;4.10;;;;;;;23.41;100.00;99922.47;1691841;83;21309;-56
2022/08/14 03:11:15;;;;;;;5.93;4.30;;;;;;;23.47;100.00;99921.38;1693430;84;21393;-56
2022/08/14 03:13:46;;;;;;;9.63;5.03;;;;;;;23.48;100.00;99921.08;1693656;84;21150;-56
2022/08/14 03:16:15;;;;;;;6.50;4.70;;;;;;;23.52;100.00;99929.30;1692698;84;21023;-60
2022/08/14 03:18:43;;;;;;;6.93;4.37;;;;;;;23.59;100.00;99928.47;1693432;84;20951;-56
2022/08/14 03:21:15;;;;;;;5.80;4.10;;;;;;;23.67;100.00;99934.55;1694006;84;21015;-56
2022/08/14 03:23:43;;;;;;;;;;;;;;;23.77;100.00;99931.03;1696358;84;21585;-56
2022/08/14 03:26:17;;;;;;;8.67;4.80;;;;;;;23.87;100.00;99933.63;1693649;84;21151;-65
2022/08/14 03:28:46;;;;;;;4.97;3.97;;;;;;;23.96;100.00;99928.48;1692929;84;20964;-57
2022/08/14 03:31:13;;;;;;;7.47;4.03;;;;;;;24.07;100.00;99923.86;1693896;84;20936;-58
2022/08/14 03:33:41;;;;;;;6.40;4.40;;;;;;;24.21;100.00;99928.80;1693803;84;21084;-56
2022/08/14 03:36:12;;;;;;;7.90;4.40;;;;;;;24.33;100.00;99927.87;1694024;84;20939;-56
2022/08/14 03:38:41;;;;;;;6.67;4.50;;;;;;;24.48;100.00;99913.08;1692910;84;21919;-56
2022/08/14 03:41:16;;;;;;;6.97;4.40;;;;;;;24.73;100.00;99926.63;1694011;84;21621;-56
2022/08/14 03:43:46;;;;;;;6.57;4.23;;;;;;;25.03;100.00;99921.21;1693742;84;20943;-57
2022/08/14 03:46:14;;;;;;;5.10;4.00;;;;;;;25.41;100.00;99921.48;1692938;84;21529;-57
2022/08/14 03:48:43;;;;;;;6.53;4.03;;;;;;;25.83;99.04;99916.34;1694336;84;21599;-56
2022/08/14 03:51:12;;;;;;;5.80;3.57;;;;;;;26.15;93.32;99916.86;1693808;84;21121;-56
2022/08/14 03:53:42;;;;;;;9.07;4.87;;;;;;;26.34;86.67;99910.89;1694157;84;21007;-56
2022/08/14 03:56:13;;;;;;;6.90;4.25;;;;;;;26.55;85.75;99911.85;1693258;84;20955;-58
2022/08/14 03:58:44;;;;;;;5.90;4.55;;;;;;;26.84;80.72;99906.19;1694476;84;21524;-56
2022/08/14 04:01:12;;;;;;;6.95;4.40;;;;;;;27.05;77.17;99904.67;1694142;84;21050;-56
2022/08/14 04:03:39;;;;;;;6.28;4.72;;;;;;;27.16;73.05;99914.09;1694001;84;22330;-57
2022/08/14 04:06:07;;;;;;;6.15;4.42;;;;;;;27.21;73.66;99916.41;1692570;84;21063;-61
2022/08/14 04:08:36;;;;;;;5.60;4.33;;;;;;;27.28;72.39;99932.28;1694018;84;21006;-58
2022/08/14 04:11:06;;;;;;;6.90;4.40;;;;;;;27.36;70.28;99909.36;1694322;84;21497;-57
2022/08/14 04:13:37;;;;;;;5.50;3.98;;;;;;;27.43;68.67;99909.73;1694027;84;21016;-56
2022/08/14 04:16:07;;;;;;;7.90;4.07;;;;;;;27.48;67.59;99910.94;1693029;84;21498;-64
2022/08/14 04:18:40;;;;;;;5.90;4.43;;;;;;;27.32;67.78;99917.20;1694161;84;21446;-56
2022/08/14 04:21:07;;;;;;;6.53;4.08;;;;;;;27.08;69.79;99917.97;1694241;84;20980;-58
2022/08/14 04:23:34;;;;;;;7.35;4.20;;;;;;;26.84;70.50;99920.90;1694214;84;20956;-56
2022/08/14 04:26:05;;;;;;;9.95;4.33;;;;;;;26.63;74.06;99921.84;1692778;84;20979;-57
2022/08/14 04:28:32;;;;;;;7.37;4.28;;;;;;;26.43;76.80;99928.36;1694030;84;21165;-56
2022/08/14 04:30:59;;;;;;;5.15;3.83;;;;;;;26.25;78.73;99935.36;1693953;84;21485;-56
2022/08/14 04:33:27;;;;;;;7.87;3.95;;;;;;;26.06;82.02;99930.63;1693951;84;21093;-56
2022/08/14 04:35:55;;;;;;;5.92;4.30;;;;;;;25.86;86.10;99927.77;1692570;84;20975;-63
2022/08/14 04:43:53;;;;;;;7.27;4.03;;;;;;;25.50;91.22;99928.32;1692753;84;21921;-58
2022/08/14 04:46:21;;;;;;;9.23;4.13;;;;;;;25.41;91.92;99924.70;1693307;84;22071;-56
2022/08/14 04:48:50;;;;;;;5.73;4.20;;;;;;;25.34;90.56;99918.94;1693205;84;21099;-56
2022/08/14 04:51:19;;;;;;;8.87;4.73;;;;;;;25.25;92.17;99928.14;1693218;84;20952;-63
2022/08/14 04:53:48;;;;;;;7.47;4.00;;;;;;;25.21;95.11;99927.13;1692954;84;21652;-57
2022/08/14 04:56:21;;;;;;;4.80;4.23;;;;;;;25.16;95.13;99936.00;1693435;84;21102;-56
2022/08/14 04:58:46;;;;;;;7.92;4.33;;;;;;;25.12;96.39;99927.53;1693266;84;21067;-56
2022/08/14 05:01:14;;;;;;;6.47;4.20;;;;;;;25.10;96.21;99932.35;1692865;84;21070;-65
2022/08/14 05:03:41;;;;;;;7.73;5.00;;;;;;;25.07;95.98;99934.22;1693342;84;20960;-59
2022/08/14 05:06:10;;;;;;;6.33;3.87;;;;;;;25.08;96.17;99927.80;1673070;84;21196;-58
2022/08/14 05:08:37;;;;;;;8.87;4.10;;;;;;;25.08;98.13;99934.47;1660437;86;22447;-56
2022/08/14 05:11:05;;;;;;;6.30;4.10;;;;;;;25.10;96.93;99927.02;1660431;86;21079;-56
2022/08/14 05:13:34;;;;;;;6.27;3.97;;;;;;;25.15;95.58;99930.94;1660110;86;21042;-58
2022/08/14 05:16:01;;;;;;;9.33;4.90;;;;;;;25.22;95.94;99929.50;1660228;86;21132;-64
2022/08/14 05:18:33;;;;;;;9.17;4.20;;;;;;;25.30;94.05;99931.27;1659750;86;21513;-57
2022/08/14 05:21:04;;;;;;;4.90;3.83;;;;;;;25.38;92.62;99934.10;1660364;86;21116;-57
2022/08/14 05:23:33;;;;;;;;;;;;;;;25.60;88.63;99930.81;1662977;86;21525;-56
2022/08/14 05:26:11;;;;;;;7.37;4.13;;;;;;;25.98;85.46;99930.77;1660586;86;20438;-58
2022/08/14 05:28:35;;;;;;;6.83;4.30;;;;;;;26.44;83.54;99936.09;1660472;85;21145;-56
2022/08/14 05:31:07;;;;;;;5.05;3.77;;;;;;;26.77;74.44;99945.91;1660065;86;21231;-65
2022/08/14 05:33:35;;;;;;;6.55;3.72;;;;;;;26.77;71.09;99938.68;1660367;86;21533;-57
2022/08/14 05:36:06;;;;;;;4.87;3.87;;;;;;;26.73;71.68;99940.37;1660668;86;21013;-60
2022/08/14 05:38:36;;;;;;;7.22;3.90;;;;;;;26.72;71.50;99946.02;1660231;86;21034;-58
2022/08/14 05:41:06;;;;;;;;;;;;;;;26.75;70.34;99938.75;1662991;86;21368;-64
2022/08/14 05:43:33;;;;;;;5.40;3.50;;;;;;;26.76;69.83;99938.98;1660025;86;21132;-56
2022/08/14 05:46:00;;;;;;;7.10;4.05;;;;;;;26.76;68.62;99945.13;1660372;86;21410;-57
2022/08/14 05:48:28;;;;;;;8.80;3.72;;;;;;;26.76;69.22;99943.79;1659919;86;21031;-59
2022/08/14 05:50:55;;;;;;;5.15;4.05;;;;;;;26.78;69.52;99934.13;1660509;86;21041;-57
2022/08/14 05:53:24;;;;;;;5.42;3.65;;;;;;;26.81;69.00;99934.31;1659661;86;21051;-66
2022/08/14 05:55:52;;;;;;;6.33;3.58;;;;;;;26.83;65.76;99932.70;1660674;86;21371;-56
2022/08/14 05:58:19;;;;;;;8.40;3.85;;;;;;;26.85;65.00;99936.64;1659797;86;21007;-58
2022/08/14 06:00:48;;;;;;;7.70;4.15;;;;;;;26.89;65.44;99936.28;1660547;86;21798;-56
2022/08/14 06:03:21;;;;;;;4.35;3.25;;;;;;;26.93;64.44;99928.45;1660149;86;21509;-58
2022/08/14 06:05:51;;;;;;;7.75;3.75;;;;;;;26.94;62.99;99930.06;1670328;84;21356;-64
2022/08/14 06:08:26;;;;;;;4.58;3.42;;;;;;;26.92;62.85;99924.20;1693561;84;22275;-57
2022/08/14 06:10:56;;;;;;;7.70;4.17;;;;;;;26.89;62.27;99921.58;1693283;84;21583;-62
2022/08/14 06:13:26;;;;;;;6.97;4.37;;;;;;;26.85;63.77;99933.96;1692974;84;21476;-57
2022/08/14 06:15:53;;;;;;;4.55;3.47;;;;;;;26.83;63.34;99925.47;1693077;84;21544;-60
2022/08/14 06:18:20;;;;;;;8.23;3.87;;;;;;;26.86;62.34;99924.87;1693025;84;20983;-57
2022/08/14 06:20:47;;;;;;;5.15;3.52;;;;;;;26.91;63.35;99928.77;1692974;84;21400;-57
2022/08/14 06:23:16;;;;;;;7.53;3.70;;;;;;;27.06;62.33;99936.23;1692530;84;21512;-58
2022/08/14 06:25:43;;;;;;;6.67;3.95;;;;;;;27.16;61.83;99928.80;1693095;84;21070;-56
2022/08/14 06:28:18;;;;;;;4.83;3.22;;;;;;;27.30;60.89;99913.23;1692660;84;20940;-58
2022/08/14 06:30:45;;;;;;;5.60;3.65;;;;;;;27.40;58.28;99929.07;1692870;84;21086;-58
2022/08/14 06:33:14;;;;;;;6.83;4.00;;;;;;;27.45;58.21;99922.80;1692604;84;21231;-59
2022/08/14 06:35:41;;;;;;;5.58;3.33;;;;;;;27.50;57.31;99920.78;1693122;84;21623;-56
2022/08/14 06:38:08;;;;;;;5.37;3.35;;;;;;;27.54;56.60;99924.47;1692674;84;20955;-57
2022/08/14 06:40:36;;;;;;;6.70;3.45;;;;;;;27.58;55.20;99917.95;1693168;84;21428;-57
2022/08/14 06:43:08;;;;;;;5.55;3.30;;;;;;;27.67;56.12;99922.81;1692965;84;21067;-63
2022/08/14 06:45:38;;;;;;;6.45;3.55;;;;;;;27.85;55.77;99918.39;1693245;84;21452;-57
2022/08/14 06:48:16;;;;;;;4.00;3.17;;;;;;;28.02;55.09;99920.36;1692972;84;21515;-63
2022/08/14 06:50:45;;;;;;;6.22;3.83;;;;;;;28.19;53.37;99919.67;1675043;84;21388;-59
2022/08/14 06:53:13;;;;;;;6.62;3.33;;;;;;;28.33;52.70;99935.86;1693062;84;21592;-57
2022/08/14 06:55:41;;;;;;;8.10;3.37;;;;;;;28.46;52.29;99924.06;1693648;84;20960;-57
2022/08/14 06:58:14;;;;;;;5.85;3.20;;;;;;;28.52;51.76;99928.16;1693187;84;22013;-63
2022/08/14 07:05:44;;;;;;;6.28;3.02;;;;;;;28.62;51.05;99929.23;1692771;84;21495;-64
2022/08/14 07:05:54;;;;;;;6.10;3.52;;;;;;;28.86;48.87;99916.72;1633616;87;21557;-58
2022/08/14 07:08:27;;;;;;;5.75;3.60;;;;;;;28.95;48.47;99916.20;1644914;85;21534;-58
2022/08/14 07:10:58;;;;;;;5.47;3.58;;;;;;;29.03;47.94;99920.03;1660325;86;21566;-57
2022/08/14 07:13:27;;;;;;;6.62;3.47;;;;;;;29.12;46.74;99908.73;1660734;86;20947;-65
2022/08/14 07:15:55;;;;;;;3.98;2.87;;;;;;;29.21;46.17;99905.52;1660014;86;21541;-57
2022/08/14 07:18:25;;;;;;;5.50;2.85;;;;;;;29.34;45.42;99893.81;1660061;86;21529;-58
2022/08/14 07:20:53;;;;;;;6.28;3.47;;;;;;;29.49;44.67;99885.82;1660390;86;21471;-57
2022/08/14 07:23:22;;;;;;;4.67;2.70;;;;;;;29.64;43.84;99895.86;1660267;86;22441;-57
2022/08/14 07:25:55;;;;;;;5.80;3.50;;;;;;;29.75;43.83;99893.08;1659918;86;20959;-60
2022/08/14 07:28:26;;;;;;;3.52;2.83;;;;;;;29.85;42.33;99894.61;1659632;86;21014;-58
2022/08/14 07:30:56;;;;;;;4.30;2.87;;;;;;;29.92;41.95;99889.53;1659885;86;21023;-56
2022/08/14 07:33:25;;;;;;;8.00;3.02;;;;;;;29.98;40.74;99884.23;1660828;86;26871;-65
2022/08/14 07:35:53;;;;;;;7.35;3.33;;;;;;;30.12;40.24;99885.34;1659664;86;21583;-64
2022/08/14 07:38:21;;;;;;;4.92;3.35;;;;;;;30.28;39.96;99886.43;1660406;86;22253;-57
2022/08/14 07:40:49;;;;;;;8.48;3.17;;;;;;;30.50;39.97;99882.68;1660516;86;21474;-57
2022/08/14 07:43:16;;;;;;;5.33;3.35;;;;;;;30.82;38.73;99877.19;1660360;86;21513;-62
2022/08/14 07:45:44;;;;;;;6.45;3.02;;;;;;;31.16;37.84;99865.92;1659917;86;21086;-66
2022/08/14 07:48:11;;;;;;;5.37;3.47;;;;;;;31.47;37.52;99872.22;1660143;86;21670;-57
2022/08/14 07:50:39;;;;;;;8.28;3.08;;;;;;;31.66;35.39;99860.93;1660344;86;20986;-57
2022/08/14 07:53:06;;;;;;;6.10;3.42;;;;;;;31.71;35.24;99861.52;1660367;86;20963;-58
2022/08/14 07:55:35;;;;;;;7.12;2.95;;;;;;;31.84;34.62;99866.92;1660094;86;21004;-64
2022/08/14 07:58:02;;;;;;;3.65;2.30;;;;;;;31.94;33.34;99857.87;1660325;86;21823;-57
2022/08/14 08:00:30;;;;;;;5.80;2.72;;;;;;;32.06;32.26;99855.73;1660380;86;21326;-57
2022/08/14 08:02:58;;;;;;;9.15;3.25;;;;;;;32.17;32.00;99870.34;1660056;86;21058;-58
2022/08/14 08:05:25;;;;;;;6.85;3.67;;;;;;;32.29;32.11;99864.72;1660854;86;20967;-65
2022/08/14 08:07:53;;;;;;;6.00;4.92;;;;;;;32.35;32.79;99864.70;1688269;84;20916;-61
2022/08/14 08:10:30;;;;;;;6.62;4.87;;;;;;;32.35;32.14;99863.35;1693818;84;21614;-57
2022/08/14 08:13:01;;;;;;;6.37;4.17;;;;;;;32.25;32.65;99863.83;1693834;84;21157;-57
2022/08/14 08:15:31;;;;;;;;;;;;;;;32.20;32.03;99862.13;1696310;84;21568;-65
2022/08/14 08:18:03;;;;;;;7.53;4.00;;;;;;;32.17;32.34;99853.38;1693792;84;20405;-57
2022/08/14 08:20:34;;;;;;;8.75;3.90;;;;;;;32.21;32.21;99851.02;1693815;84;21051;-57
2022/08/14 08:23:01;;;;;;;6.03;3.27;;;;;;;32.23;31.97;99850.09;1693893;84;20948;-57
2022/08/14 08:25:31;;;;;;;5.85;3.25;;;;;;;32.20;31.85;99848.10;1693243;84;21320;-65
2022/08/14 08:28:01;;;;;;;5.45;3.45;;;;;;;32.17;31.82;99866.30;1693001;84;21119;-58
2022/08/14 08:30:31;;;;;;;4.90;3.35;;;;;;;32.10;31.88;99863.37;1693401;84;21082;-57
2022/08/14 08:33:00;;;;;;;6.37;2.83;;;;;;;32.03;32.24;99842.14;1693500;84;21592;-57
2022/08/14 08:35:32;;;;;;;6.58;2.45;;;;;;;32.05;31.91;99853.36;1692733;84;21086;-59
2022/08/14 08:38:09;;;;;;;6.35;2.67;;;;;;;32.05;31.10;99852.83;1692760;84;22551;-57
2022/08/14 08:40:40;;;;;;;7.03;2.77;;;;;;;32.02;30.73;99844.05;1693061;84;20980;-57
2022/08/14 08:43:31;;;;;;;5.42;2.80;;;;;;;32.05;30.92;99855.52;1693447;84;20995;-59
2022/08/14 08:46:05;;;;;;;5.62;2.87;;;;;;;32.28;32.22;99854.50;1693413;84;21101;-59
2022/08/14 08:48:47;;;;;;;3.62;2.83;;;;;;;32.73;31.22;99839.25;1693365;84;20983;-57
2022/08/14 08:51:37;;;;;;;7.33;3.50;;;;;;;33.10;31.09;99840.72;1693003;84;22259;-57
2022/08/14 08:54:08;;;;;;;5.00;3.22;;;;;;;33.60;30.01;99837.22;1693404;84;24651;-57
2022/08/14 08:56:39;;;;;;;5.12;3.30;;;;;;;34.19;29.41;99828.23;1692861;84;21556;-59
2022/08/14 08:59:23;;;;;;;6.47;3.12;;;;;;;34.66;28.51;99827.32;1693452;84;21062;-59
2022/08/14 09:02:01;;;;;;;4.83;2.40;;;;;;;34.95;27.33;99835.45;1693432;84;20999;-57
2022/08/14 09:04:40;;;;;;;4.42;2.33;;;;;;;35.06;27.92;99827.56;1689242;84;21197;-58
2022/08/14 09:07:09;;;;;;;5.17;3.10;;;;;;;35.41;28.40;99815.80;1679109;84;20900;-57
2022/08/14 09:09:50;;;;;;;5.10;2.85;;;;;;;35.81;26.83;99820.76;1661036;86;20987;-57
2022/08/14 09:12:09;;;;;;;6.22;2.72;;;;;;;35.80;26.90;99809.13;1660299;85;20912;-59
2022/08/14 09:14:36;;;;;;;9.30;2.50;;;;;;;35.66;26.69;99821.67;1661239;86;21419;-57
2022/08/14 09:17:04;;;;;;;4.58;3.05;;;;;;;35.39;26.55;99824.30;1661072;86;21152;-57
2022/08/14 09:19:31;;;;;;;4.65;2.27;;;;;;;35.02;26.65;99817.23;1661350;86;20975;-57
2022/08/14 09:21:58;;;;;;;7.15;2.10;;;;;;;34.70;26.96;99813.86;1660646;86;21000;-65
2022/08/14 09:24:25;;;;;;;6.55;2.92;;;;;;;34.34;27.30;99810.39;1660715;86;21477;-59
2022/08/14 09:26:52;;;;;;;4.03;2.37;;;;;;;34.01;27.68;99813.52;1661320;86;21019;-57
2022/08/14 09:29:20;;;;;;;5.00;2.60;;;;;;;33.65;28.38;99820.19;1661223;86;21328;-56
2022/08/14 09:31:51;;;;;;;5.10;2.77;;;;;;;33.35;28.50;99819.78;1661288;86;21112;-57
2022/08/14 09:34:44;;;;;;;4.85;3.00;;;;;;;33.13;29.42;99815.73;1660320;86;20955;-56
2022/08/14 09:37:56;;;;;;;4.12;2.72;;;;;;;33.04;29.27;99815.11;1661085;86;21469;-56
2022/08/14 09:40:39;;;;;;;5.00;3.15;;;;;;;32.86;29.50;99811.11;1654597;86;21063;-56
2022/08/14 09:43:20;;;;;;;4.00;2.92;;;;;;;32.66;29.71;99811.52;1634382;86;21840;-62
2022/08/14 09:45:50;;;;;;;3.90;3.00;;;;;;;32.53;30.04;99811.31;1660722;86;21130;-57
2022/08/14 09:48:19;;;;;;;7.60;2.90;;;;;;;32.45;30.12;99813.02;1660869;86;21011;-57
2022/08/14 09:50:51;;;;;;;5.03;3.10;;;;;;;32.34;30.41;99805.92;1660364;86;20975;-64
2022/08/14 09:53:46;;;;;;;3.52;2.95;;;;;;;32.31;30.09;99803.12;1661270;86;21550;-57
2022/08/14 09:56:13;;;;;;;4.92;3.20;;;;;;;32.34;30.05;99799.18;1661028;86;21247;-62
2022/08/14 09:58:43;;;;;;;7.30;3.10;;;;;;;32.78;30.28;99792.58;1660018;86;21003;-56
2022/08/14 10:01:16;;;;;;;9.65;3.40;;;;;;;33.44;29.47;99811.51;1660905;86;20932;-56
2022/08/14 10:03:55;;;;;;;6.53;2.65;;;;;;;33.98;28.40;99782.57;1661018;86;21046;-56
2022/08/14 10:06:24;;;;;;;3.92;2.98;;;;;;;34.29;27.71;99786.33;1658537;86;21084;-56
2022/08/14 10:09:04;;;;;;;6.33;3.10;;;;;;;34.45;27.32;99779.50;1696453;84;21905;-56
2022/08/14 10:11:37;;;;;;;9.03;3.37;;;;;;;34.52;27.52;99779.11;1696121;84;20931;-57
2022/08/14 10:14:16;;;;;;;6.60;3.10;;;;;;;34.66;26.85;99779.95;1695203;84;21556;-64
2022/08/14 10:16:49;;;;;;;7.12;3.00;;;;;;;34.76;27.40;99779.95;1696087;84;20979;-57
2022/08/14 10:19:18;;;;;;;3.77;2.80;;;;;;;35.04;27.02;99775.11;1696093;84;21532;-57
2022/08/14 10:21:59;;;;;;;5.65;2.80;;;;;;;35.37;26.81;99772.95;1695401;84;21695;-64
2022/08/14 10:24:38;;;;;;;7.03;3.83;;;;;;;35.66;26.48;99770.16;1695686;84;21130;-56
2022/08/14 10:27:15;;;;;;;7.50;3.85;;;;;;;35.86;25.54;99772.97;1695121;84;21489;-57
2022/08/14 10:29:44;;;;;;;6.08;3.90;;;;;;;35.95;25.52;99776.22;1695332;84;20999;-56
2022/08/14 10:32:12;;;;;;;4.78;3.12;;;;;;;35.99;25.44;99778.44;1666071;84;21078;-56
2022/08/14 10:34:40;;;;;;;5.67;3.62;;;;;;;35.85;25.43;99767.92;1695220;84;21282;-59
2022/08/14 10:37:10;;;;;;;6.33;3.67;;;;;;;35.62;25.71;99770.11;1695232;84;20951;-58
2022/08/14 10:39:40;;;;;;;6.45;3.20;;;;;;;35.61;26.49;99779.94;1694700;84;21564;-56
2022/08/14 10:42:12;;;;;;;4.43;2.70;;;;;;;35.68;25.90;99777.34;1695354;84;21623;-57
2022/08/14 10:44:44;;;;;;;8.33;3.55;;;;;;;35.60;25.60;99764.83;1695295;84;21059;-63
2022/08/14 10:47:10;;;;;;;5.92;3.42;;;;;;;35.44;26.15;99776.56;1695269;84;21270;-56
2022/08/14 10:49:49;;;;;;;4.78;3.75;;;;;;;35.48;26.40;99760.36;1695072;84;21469;-57
2022/08/14 10:52:23;;;;;;;6.00;3.25;;;;;;;35.70;26.33;99759.58;1694533;84;21051;-55
2022/08/14 10:54:50;;;;;;;5.37;4.00;;;;;;;35.84;26.07;99767.15;1695438;84;20916;-56
2022/08/14 10:57:25;;;;;;;9.15;4.37;;;;;;;35.86;25.92;99767.55;1695009;84;21043;-56
2022/08/14 10:59:56;;;;;;;7.12;4.05;;;;;;;35.68;26.28;99759.72;1695988;84;21158;-56
2022/08/14 11:02:36;;;;;;;6.53;4.58;;;;;;;35.50;26.80;99762.95;1695293;84;21149;-57
2022/08/14 11:05:14;;;;;;;6.53;3.90;;;;;;;35.46;26.43;99762.09;1695296;84;21019;-56
2022/08/14 11:07:54;;;;;;;6.47;3.60;;;;;;;35.30;26.48;99768.19;1694440;84;21011;-64
2022/08/14 11:10:40;;;;;;;6.42;3.95;;;;;;;35.21;26.69;99767.66;1693433;84;21998;-56
2022/08/14 11:13:08;;;;;;;9.40;4.28;;;;;;;35.22;27.08;99771.34;1677062;84;21205;-57
2022/08/14 11:15:35;;;;;;;5.53;4.20;;;;;;;35.24;27.56;99771.78;1692425;84;20928;-56
2022/08/14 11:18:04;;;;;;;7.50;5.08;;;;;;;35.29;27.75;99772.05;1693390;84;21058;-56
2022/08/14 11:20:32;;;;;;;7.10;4.47;;;;;;;35.42;28.15;99763.95;1692621;84;21525;-56
2022/08/14 11:23:00;;;;;;;5.22;3.30;;;;;;;35.67;27.75;99770.36;1693372;84;21650;-56
2022/08/14 11:25:36;;;;;;;6.87;4.10;;;;;;;35.78;27.04;99770.73;1692991;84;21120;-62
2022/08/14 11:28:02;;;;;;;7.50;3.62;;;;;;;35.85;27.04;99778.20;1692599;84;21078;-55
2022/08/14 11:30:29;;;;;;;8.33;3.00;;;;;;;35.72;26.19;99774.89;1692793;84;21034;-56
2022/08/14 11:32:57;;;;;;;4.92;3.80;;;;;;;35.56;26.57;99757.98;1693131;84;21046;-56
2022/08/14 11:35:28;;;;;;;6.65;3.92;;;;;;;35.41;26.54;99767.79;1692910;84;20955;-58
2022/08/14 11:38:00;;;;;;;5.12;2.85;;;;;;;35.28;27.19;99769.91;1693173;84;21121;-56
2022/08/14 11:40:33;;;;;;;8.83;3.45;;;;;;;35.23;27.08;99762.64;1691758;84;20968;-56
2022/08/14 11:43:04;;;;;;;5.90;3.22;;;;;;;35.21;26.99;99759.52;1693224;84;21020;-56
2022/08/14 11:45:34;;;;;;;5.53;3.15;;;;;;;35.08;27.01;99766.48;1692403;84;21490;-56
2022/08/14 11:48:04;;;;;;;;;;;;;;;34.93;27.01;99748.92;1694188;84;21062;-64
2022/08/14 11:50:33;;;;;;;4.35;3.47;;;;;;;34.85;26.82;99761.55;1690053;84;22194;-56
2022/08/14 11:53:01;;;;;;;6.17;3.92;;;;;;;34.78;27.01;99753.31;1693232;84;20952;-56
2022/08/14 11:55:34;;;;;;;5.08;3.55;;;;;;;34.75;27.41;99749.97;1672916;84;21561;-57
2022/08/14 11:58:09;;;;;;;6.58;4.55;;;;;;;34.81;27.94;99739.03;1693099;84;21287;-64
2022/08/14 12:00:53;;;;;;;4.28;3.45;;;;;;;35.00;27.46;99741.73;1693587;84;21077;-56